sensor_id;sensor_type;location;lat;lon;timestamp;temperature;humidity
25628;DHT22;40915;50.826;4.356;2024-02-14T12:31:46;12.20;99.90
25628;DHT22;40915;50.826;4.356;2024-02-14T12:34:12;12.30;99.90
25628;DHT22;40915;50.826;4.356;2024-02-14T12:36:38;12.20;99.90
25628;DHT22;40915;50.826;4.356;2024-02-14T12:39:04;12.20;99.90
25628;DHT22;40915;50.826;4.356;2024-02-14T12:41:32;12.30;99.90
25628;DHT22;40915;50.826;4.356;2024-02-14T12:44:00;12.30;99.90
25628;DHT22;40915;50.826;4.356;2024-02-14T12:46:26;12.30;99.90
25628;DHT22;40915;50.826;4.356;2024-02-14T12:48:53;12.30;99.90
25628;DHT22;40915;50.826;4.356;2024-02-14T12:51:19;12.40;99.90
25628;DHT22;40915;50.826;4.356;2024-02-14T12:53:44;12.40;99.90
25628;DHT22;40915;50.826;4.356;2024-02-14T12:56:10;12.50;99.90
25628;DHT22;40915;50.826;4.356;2024-02-14T12:58:36;12.50;99.90
25628;DHT22;40915;50.826;4.356;2024-02-14T13:01:01;12.50;99.90
25628;DHT22;40915;50.826;4.356;2024-02-14T13:03:31;12.40;99.90
25628;DHT22;40915;50.826;4.356;2024-02-14T13:05:57;12.40;99.90
25628;DHT22;40915;50.826;4.356;2024-02-14T13:08:22;12.40;99.90
25628;DHT22;40915;50.826;4.356;2024-02-14T13:10:49;12.40;99.90
25628;DHT22;40915;50.826;4.356;2024-02-14T13:13:14;12.40;99.90
25628;DHT22;40915;50.826;4.356;2024-02-14T13:15:40;12.40;99.90
25628;DHT22;40915;50.826;4.356;2024-02-14T13:18:08;12.40;99.90
25628;DHT22;40915;50.826;4.356;2024-02-14T13:20:34;12.40;99.90
25628;DHT22;40915;50.826;4.356;2024-02-14T13:22:59;12.40;99.90
25628;DHT22;40915;50.826;4.356;2024-02-14T13:25:25;12.40;99.90
25628;DHT22;40915;50.826;4.356;2024-02-14T13:27:51;12.40;99.90
25628;DHT22;40915;50.826;4.356;2024-02-14T13:30:17;12.40;99.90
25628;DHT22;40915;50.826;4.356;2024-02-14T13:32:44;12.40;99.90
25628;DHT22;40915;50.826;4.356;2024-02-14T13:35:09;12.30;99.90
25628;DHT22;40915;50.826;4.356;2024-02-14T13:37:36;12.40;99.90
25628;DHT22;40915;50.826;4.356;2024-02-14T13:40:02;12.40;99.90
25628;DHT22;40915;50.826;4.356;2024-02-14T13:42:30;12.40;99.90
25628;DHT22;40915;50.826;4.356;2024-02-14T13:44:55;12.40;99.90
25628;DHT22;40915;50.826;4.356;2024-02-14T13:47:21;12.40;99.90
25628;DHT22;40915;50.826;4.356;2024-02-14T13:49:48;12.30;99.90
25628;DHT22;40915;50.826;4.356;2024-02-14T13:52:13;12.30;99.90
25628;DHT22;40915;50.826;4.356;2024-02-14T13:54:41;12.40;99.90
25628;DHT22;40915;50.826;4.356;2024-02-14T13:57:06;12.30;99.90
25628;DHT22;40915;50.826;4.356;2024-02-14T13:59:32;12.40;99.90
25628;DHT22;40915;50.826;4.356;2024-02-14T14:01:58;12.40;99.90
25628;DHT22;40915;50.826;4.356;2024-02-14T14:04:23;12.40;99.90
25628;DHT22;40915;50.826;4.356;2024-02-14T14:06:51;12.40;99.90
25628;DHT22;40915;50.826;4.356;2024-02-14T14:09:16;12.40;99.90
25628;DHT22;40915;50.826;4.356;2024-02-14T14:11:42;12.50;99.90
25628;DHT22;40915;50.826;4.356;2024-02-14T14:14:07;12.50;99.90
25628;DHT22;40915;50.826;4.356;2024-02-14T14:16:34;12.50;99.90
25628;DHT22;40915;50.826;4.356;2024-02-14T14:19:00;12.50;99.90
25628;DHT22;40915;50.826;4.356;2024-02-14T14:21:26;12.60;99.90
25628;DHT22;40915;50.826;4.356;2024-02-14T14:23:51;12.60;99.90
25628;DHT22;40915;50.826;4.356;2024-02-14T14:26:18;12.60;99.90
25628;DHT22;40915;50.826;4.356;2024-02-14T14:28:45;12.60;99.90
25628;DHT22;40915;50.826;4.356;2024-02-14T14:31:11;12.60;99.90
25628;DHT22;40915;50.826;4.356;2024-02-14T14:33:37;12.60;99.90
25628;DHT22;40915;50.826;4.356;2024-02-14T14:36:08;12.60;99.90
25628;DHT22;40915;50.826;4.356;2024-02-14T14:38:34;12.60;99.90
25628;DHT22;40915;50.826;4.356;2024-02-14T14:40:59;12.60;99.90
25628;DHT22;40915;50.826;4.356;2024-02-14T14:43:25;12.60;99.90
25628;DHT22;40915;50.826;4.356;2024-02-14T14:45:51;12.60;99.90
25628;DHT22;40915;50.826;4.356;2024-02-14T14:48:18;12.60;99.90
25628;DHT22;40915;50.826;4.356;2024-02-14T14:50:44;12.60;99.90
25628;DHT22;40915;50.826;4.356;2024-02-14T14:53:09;12.60;99.90
25628;DHT22;40915;50.826;4.356;2024-02-14T14:55:54;12.60;99.90
25628;DHT22;40915;50.826;4.356;2024-02-14T14:58:25;12.70;99.90
25628;DHT22;40915;50.826;4.356;2024-02-14T15:00:56;12.70;99.90
25628;DHT22;40915;50.826;4.356;2024-02-14T15:03:22;12.70;99.90
25628;DHT22;40915;50.826;4.356;2024-02-14T15:05:48;12.70;99.90
25628;DHT22;40915;50.826;4.356;2024-02-14T15:08:14;12.60;99.90
25628;DHT22;40915;50.826;4.356;2024-02-14T15:10:40;12.70;99.90
25628;DHT22;40915;50.826;4.356;2024-02-14T15:13:09;12.60;99.90
25628;DHT22;40915;50.826;4.356;2024-02-14T15:15:35;12.70;99.90
25628;DHT22;40915;50.826;4.356;2024-02-14T15:18:02;12.70;99.90
25628;DHT22;40915;50.826;4.356;2024-02-14T15:20:27;12.70;99.90
25628;DHT22;40915;50.826;4.356;2024-02-14T15:22:55;12.80;99.90
25628;DHT22;40915;50.826;4.356;2024-02-14T15:25:21;12.80;99.90
25628;DHT22;40915;50.826;4.356;2024-02-14T15:27:47;12.70;99.90
25628;DHT22;40915;50.826;4.356;2024-02-14T15:30:26;12.80;99.90
25628;DHT22;40915;50.826;4.356;2024-02-14T15:33:11;12.80;99.90
25628;DHT22;40915;50.826;4.356;2024-02-14T15:35:51;12.80;99.90
25628;DHT22;40915;50.826;4.356;2024-02-14T15:38:21;12.70;99.90
25628;DHT22;40915;50.826;4.356;2024-02-14T15:40:48;12.80;99.90
25628;DHT22;40915;50.826;4.356;2024-02-14T15:43:16;12.80;99.90
25628;DHT22;40915;50.826;4.356;2024-02-14T15:45:42;12.70;99.90
25628;DHT22;40915;50.826;4.356;2024-02-14T15:48:08;12.80;99.90
25628;DHT22;40915;50.826;4.356;2024-02-14T15:50:35;12.80;99.90
25628;DHT22;40915;50.826;4.356;2024-02-14T15:53:01;12.80;99.90
25628;DHT22;40915;50.826;4.356;2024-02-14T15:55:27;12.70;99.90
25628;DHT22;40915;50.826;4.356;2024-02-14T15:57:53;12.70;99.90
25628;DHT22;40915;50.826;4.356;2024-02-14T16:00:19;12.70;99.90
25628;DHT22;40915;50.826;4.356;2024-02-14T16:02:47;12.70;99.90
25628;DHT22;40915;50.826;4.356;2024-02-14T16:05:12;12.70;99.90
25628;DHT22;40915;50.826;4.356;2024-02-14T16:07:38;12.70;99.90
25628;DHT22;40915;50.826;4.356;2024-02-14T16:10:04;12.80;99.90
25628;DHT22;40915;50.826;4.356;2024-02-14T16:12:30;12.70;99.90
25628;DHT22;40915;50.826;4.356;2024-02-14T16:14:56;12.60;99.90
25628;DHT22;40915;50.826;4.356;2024-02-14T16:17:22;12.70;99.90
25628;DHT22;40915;50.826;4.356;2024-02-14T16:19:48;12.70;99.90
25628;DHT22;40915;50.826;4.356;2024-02-14T16:22:14;12.70;99.90
25628;DHT22;40915;50.826;4.356;2024-02-14T16:24:39;12.70;99.90
25628;DHT22;40915;50.826;4.356;2024-02-14T16:27:05;12.70;99.90
25628;DHT22;40915;50.826;4.356;2024-02-14T16:29:31;12.70;99.90
25628;DHT22;40915;50.826;4.356;2024-02-14T16:31:57;12.70;99.90
25628;DHT22;40915;50.826;4.356;2024-02-14T16:34:23;12.60;99.90
25628;DHT22;40915;50.826;4.356;2024-02-14T16:36:49;12.70;99.90
25628;DHT22;40915;50.826;4.356;2024-02-14T16:39:14;12.70;99.90
25628;DHT22;40915;50.826;4.356;2024-02-14T16:41:40;12.70;99.90
25628;DHT22;40915;50.826;4.356;2024-02-14T16:44:06;12.60;99.90
25628;DHT22;40915;50.826;4.356;2024-02-14T16:46:32;12.60;99.90
25628;DHT22;40915;50.826;4.356;2024-02-14T16:48:57;12.70;99.90
25628;DHT22;40915;50.826;4.356;2024-02-14T16:51:23;12.70;99.90
25628;DHT22;40915;50.826;4.356;2024-02-14T16:53:49;12.70;99.90
25628;DHT22;40915;50.826;4.356;2024-02-14T16:56:14;12.70;99.90
25628;DHT22;40915;50.826;4.356;2024-02-14T16:58:40;12.70;99.90
25628;DHT22;40915;50.826;4.356;2024-02-14T17:01:06;12.60;99.90
25628;DHT22;40915;50.826;4.356;2024-02-14T17:03:33;12.60;99.90
25628;DHT22;40915;50.826;4.356;2024-02-14T17:05:59;12.60;99.90
25628;DHT22;40915;50.826;4.356;2024-02-14T17:08:27;12.60;99.90
25628;DHT22;40915;50.826;4.356;2024-02-14T17:10:53;12.60;99.90
25628;DHT22;40915;50.826;4.356;2024-02-14T17:13:19;12.60;99.90
25628;DHT22;40915;50.826;4.356;2024-02-14T17:15:45;12.70;99.90
25628;DHT22;40915;50.826;4.356;2024-02-14T17:18:10;12.60;99.90
25628;DHT22;40915;50.826;4.356;2024-02-14T17:20:37;12.70;99.90
25628;DHT22;40915;50.826;4.356;2024-02-14T17:23:03;12.70;99.90
25628;DHT22;40915;50.826;4.356;2024-02-14T17:25:28;12.70;99.90
25628;DHT22;40915;50.826;4.356;2024-02-14T17:27:54;12.70;99.90
25628;DHT22;40915;50.826;4.356;2024-02-14T17:30:20;12.70;99.90
25628;DHT22;40915;50.826;4.356;2024-02-14T17:32:46;12.70;99.90
25628;DHT22;40915;50.826;4.356;2024-02-14T17:35:14;12.70;99.90
25628;DHT22;40915;50.826;4.356;2024-02-14T17:37:40;12.70;99.90
25628;DHT22;40915;50.826;4.356;2024-02-14T17:40:09;12.70;99.90
25628;DHT22;40915;50.826;4.356;2024-02-14T17:42:35;12.80;99.90
25628;DHT22;40915;50.826;4.356;2024-02-14T17:45:02;12.80;99.90
25628;DHT22;40915;50.826;4.356;2024-02-14T17:47:31;12.80;99.90
25628;DHT22;40915;50.826;4.356;2024-02-14T17:49:59;12.80;99.90
25628;DHT22;40915;50.826;4.356;2024-02-14T17:52:26;12.80;99.90
25628;DHT22;40915;50.826;4.356;2024-02-14T17:54:52;12.80;99.90
25628;DHT22;40915;50.826;4.356;2024-02-14T17:57:18;12.80;99.90
25628;DHT22;40915;50.826;4.356;2024-02-14T17:59:43;12.80;99.90
25628;DHT22;40915;50.826;4.356;2024-02-14T18:02:10;12.70;99.90
25628;DHT22;40915;50.826;4.356;2024-02-14T18:04:36;12.80;99.90
25628;DHT22;40915;50.826;4.356;2024-02-14T18:07:02;12.80;99.90
25628;DHT22;40915;50.826;4.356;2024-02-14T18:09:27;12.80;99.90
25628;DHT22;40915;50.826;4.356;2024-02-14T18:11:53;12.80;99.90
25628;DHT22;40915;50.826;4.356;2024-02-14T18:14:18;12.70;99.90
25628;DHT22;40915;50.826;4.356;2024-02-14T18:16:45;12.70;99.90
25628;DHT22;40915;50.826;4.356;2024-02-14T18:19:11;12.70;99.90
25628;DHT22;40915;50.826;4.356;2024-02-14T18:21:36;12.60;99.90
25628;DHT22;40915;50.826;4.356;2024-02-14T18:24:02;12.60;99.90
25628;DHT22;40915;50.826;4.356;2024-02-14T18:26:29;12.60;99.90
25628;DHT22;40915;50.826;4.356;2024-02-14T18:28:54;12.60;99.90
25628;DHT22;40915;50.826;4.356;2024-02-14T18:31:20;12.60;99.90
25628;DHT22;40915;50.826;4.356;2024-02-14T18:33:45;12.60;99.90
25628;DHT22;40915;50.826;4.356;2024-02-14T18:36:11;12.70;99.90
25628;DHT22;40915;50.826;4.356;2024-02-14T18:38:36;12.60;99.90
25628;DHT22;40915;50.826;4.356;2024-02-14T18:41:02;12.60;99.90
25628;DHT22;40915;50.826;4.356;2024-02-14T18:43:28;12.50;99.90
25628;DHT22;40915;50.826;4.356;2024-02-14T18:45:54;12.60;99.90
25628;DHT22;40915;50.826;4.356;2024-02-14T18:48:21;12.50;99.90
25628;DHT22;40915;50.826;4.356;2024-02-14T18:50:47;12.70;99.90
25628;DHT22;40915;50.826;4.356;2024-02-14T18:53:13;12.70;99.90
25628;DHT22;40915;50.826;4.356;2024-02-14T18:55:39;12.70;99.90
25628;DHT22;40915;50.826;4.356;2024-02-14T18:58:04;12.80;99.90
25628;DHT22;40915;50.826;4.356;2024-02-14T19:00:31;12.80;99.90
25628;DHT22;40915;50.826;4.356;2024-02-14T19:02:57;12.80;99.90
25628;DHT22;40915;50.826;4.356;2024-02-14T19:05:23;12.80;99.90
25628;DHT22;40915;50.826;4.356;2024-02-14T19:07:49;12.80;99.90
25628;DHT22;40915;50.826;4.356;2024-02-14T19:10:15;12.80;99.90
25628;DHT22;40915;50.826;4.356;2024-02-14T19:12:40;12.80;99.90
25628;DHT22;40915;50.826;4.356;2024-02-14T19:15:07;12.80;99.90
25628;DHT22;40915;50.826;4.356;2024-02-14T19:17:33;12.80;99.90
25628;DHT22;40915;50.826;4.356;2024-02-14T19:20:00;12.90;99.90
25628;DHT22;40915;50.826;4.356;2024-02-14T19:22:31;12.80;99.90
25628;DHT22;40915;50.826;4.356;2024-02-14T19:25:01;12.80;99.90
25628;DHT22;40915;50.826;4.356;2024-02-14T19:27:27;12.80;99.90
25628;DHT22;40915;50.826;4.356;2024-02-14T19:29:53;12.80;99.90
25628;DHT22;40915;50.826;4.356;2024-02-14T19:32:19;12.80;99.90
25628;DHT22;40915;50.826;4.356;2024-02-14T19:34:44;12.70;99.90
25628;DHT22;40915;50.826;4.356;2024-02-14T19:37:10;12.60;99.90
25628;DHT22;40915;50.826;4.356;2024-02-14T19:39:36;12.70;99.90
25628;DHT22;40915;50.826;4.356;2024-02-14T19:42:03;12.70;99.90
25628;DHT22;40915;50.826;4.356;2024-02-14T19:44:29;12.60;99.90
25628;DHT22;40915;50.826;4.356;2024-02-14T19:46:54;12.60;99.90
25628;DHT22;40915;50.826;4.356;2024-02-14T19:49:21;12.60;99.90
25628;DHT22;40915;50.826;4.356;2024-02-14T19:51:47;12.60;99.90
25628;DHT22;40915;50.826;4.356;2024-02-14T19:54:13;12.60;99.90
25628;DHT22;40915;50.826;4.356;2024-02-14T19:56:44;12.60;99.90
25628;DHT22;40915;50.826;4.356;2024-02-14T19:59:11;12.60;99.90
25628;DHT22;40915;50.826;4.356;2024-02-14T20:01:37;12.60;99.90
25628;DHT22;40915;50.826;4.356;2024-02-14T20:04:03;12.60;99.90
25628;DHT22;40915;50.826;4.356;2024-02-14T20:06:29;12.50;99.90
25628;DHT22;40915;50.826;4.356;2024-02-14T20:08:56;12.50;99.90
25628;DHT22;40915;50.826;4.356;2024-02-14T20:11:24;12.60;99.90
25628;DHT22;40915;50.826;4.356;2024-02-14T20:13:52;12.50;99.90
25628;DHT22;40915;50.826;4.356;2024-02-14T20:16:18;12.50;99.90
25628;DHT22;40915;50.826;4.356;2024-02-14T20:18:43;12.40;99.90
25628;DHT22;40915;50.826;4.356;2024-02-14T20:21:09;12.40;99.90
25628;DHT22;40915;50.826;4.356;2024-02-14T20:23:35;12.30;99.90
25628;DHT22;40915;50.826;4.356;2024-02-14T20:26:01;12.30;99.90
25628;DHT22;40915;50.826;4.356;2024-02-14T20:28:27;12.30;99.90
25628;DHT22;40915;50.826;4.356;2024-02-14T20:30:54;12.30;99.90
25628;DHT22;40915;50.826;4.356;2024-02-14T20:33:20;12.30;99.90
25628;DHT22;40915;50.826;4.356;2024-02-14T20:35:46;12.20;99.90
25628;DHT22;40915;50.826;4.356;2024-02-14T20:38:12;12.00;99.90
25628;DHT22;40915;50.826;4.356;2024-02-14T20:40:39;12.30;99.90
25628;DHT22;40915;50.826;4.356;2024-02-14T20:43:05;12.30;99.90
25628;DHT22;40915;50.826;4.356;2024-02-14T20:45:31;12.30;99.90
25628;DHT22;40915;50.826;4.356;2024-02-14T20:47:57;12.20;99.90
25628;DHT22;40915;50.826;4.356;2024-02-14T20:50:24;12.30;99.90
25628;DHT22;40915;50.826;4.356;2024-02-14T20:52:49;12.30;99.90
25628;DHT22;40915;50.826;4.356;2024-02-14T20:55:16;12.30;99.90
25628;DHT22;40915;50.826;4.356;2024-02-14T20:57:42;12.30;99.90
25628;DHT22;40915;50.826;4.356;2024-02-14T21:00:08;12.20;99.90
25628;DHT22;40915;50.826;4.356;2024-02-14T21:02:34;12.20;99.90
25628;DHT22;40915;50.826;4.356;2024-02-14T21:05:00;12.30;99.90
25628;DHT22;40915;50.826;4.356;2024-02-14T21:07:26;12.20;99.90
25628;DHT22;40915;50.826;4.356;2024-02-14T21:09:52;12.30;99.90
25628;DHT22;40915;50.826;4.356;2024-02-14T21:12:18;12.20;99.90
25628;DHT22;40915;50.826;4.356;2024-02-14T21:14:46;12.20;99.90
25628;DHT22;40915;50.826;4.356;2024-02-14T21:17:12;12.20;99.90
25628;DHT22;40915;50.826;4.356;2024-02-14T21:19:38;12.30;99.90
25628;DHT22;40915;50.826;4.356;2024-02-14T21:22:04;12.30;99.90
25628;DHT22;40915;50.826;4.356;2024-02-14T21:24:29;12.30;99.90
25628;DHT22;40915;50.826;4.356;2024-02-14T21:26:55;12.30;99.90
25628;DHT22;40915;50.826;4.356;2024-02-14T21:29:24;12.30;99.90
25628;DHT22;40915;50.826;4.356;2024-02-14T21:31:51;12.30;99.90
25628;DHT22;40915;50.826;4.356;2024-02-14T21:34:17;12.50;99.90
25628;DHT22;40915;50.826;4.356;2024-02-14T21:36:43;12.30;99.90
25628;DHT22;40915;50.826;4.356;2024-02-14T21:39:09;12.30;99.90
25628;DHT22;40915;50.826;4.356;2024-02-14T21:41:37;12.30;99.90
25628;DHT22;40915;50.826;4.356;2024-02-14T21:44:02;12.30;99.90
25628;DHT22;40915;50.826;4.356;2024-02-14T21:46:28;12.30;99.90
25628;DHT22;40915;50.826;4.356;2024-02-14T21:48:56;12.30;99.90
25628;DHT22;40915;50.826;4.356;2024-02-14T21:51:25;12.30;99.90
25628;DHT22;40915;50.826;4.356;2024-02-14T21:53:53;12.30;99.90
25628;DHT22;40915;50.826;4.356;2024-02-14T21:56:18;12.30;99.90
25628;DHT22;40915;50.826;4.356;2024-02-14T21:58:45;12.40;99.90
25628;DHT22;40915;50.826;4.356;2024-02-14T22:01:11;12.40;99.90
25628;DHT22;40915;50.826;4.356;2024-02-14T22:03:36;12.40;99.90
25628;DHT22;40915;50.826;4.356;2024-02-14T22:06:02;12.40;99.90
25628;DHT22;40915;50.826;4.356;2024-02-14T22:08:28;12.30;99.90
25628;DHT22;40915;50.826;4.356;2024-02-14T22:10:54;12.30;99.90
25628;DHT22;40915;50.826;4.356;2024-02-14T22:13:21;12.30;99.90
25628;DHT22;40915;50.826;4.356;2024-02-14T22:15:47;12.30;99.90
25628;DHT22;40915;50.826;4.356;2024-02-14T22:18:13;12.30;99.90
25628;DHT22;40915;50.826;4.356;2024-02-14T22:20:39;12.40;99.90
25628;DHT22;40915;50.826;4.356;2024-02-14T22:23:05;12.40;99.90
25628;DHT22;40915;50.826;4.356;2024-02-14T22:25:34;12.40;99.90
25628;DHT22;40915;50.826;4.356;2024-02-14T22:28:00;12.40;99.90
25628;DHT22;40915;50.826;4.356;2024-02-14T22:30:29;12.40;99.90
25628;DHT22;40915;50.826;4.356;2024-02-14T22:32:55;12.40;99.90
25628;DHT22;40915;50.826;4.356;2024-02-14T22:35:20;12.40;99.90
25628;DHT22;40915;50.826;4.356;2024-02-14T22:37:46;12.40;99.90
25628;DHT22;40915;50.826;4.356;2024-02-14T22:40:13;12.40;99.90
25628;DHT22;40915;50.826;4.356;2024-02-14T22:42:39;12.40;99.90
25628;DHT22;40915;50.826;4.356;2024-02-14T22:45:06;12.40;99.90
25628;DHT22;40915;50.826;4.356;2024-02-14T22:47:34;12.40;99.90
25628;DHT22;40915;50.826;4.356;2024-02-14T22:50:00;12.50;99.90
25628;DHT22;40915;50.826;4.356;2024-02-14T22:52:25;12.50;99.90
25628;DHT22;40915;50.826;4.356;2024-02-14T22:54:51;12.50;99.90
25628;DHT22;40915;50.826;4.356;2024-02-14T22:57:18;12.50;99.90
25628;DHT22;40915;50.826;4.356;2024-02-14T22:59:43;12.40;99.90
25628;DHT22;40915;50.826;4.356;2024-02-14T23:02:09;12.50;99.90
25628;DHT22;40915;50.826;4.356;2024-02-14T23:04:35;12.40;99.90
25628;DHT22;40915;50.826;4.356;2024-02-14T23:07:03;12.50;99.90
25628;DHT22;40915;50.826;4.356;2024-02-14T23:09:31;12.50;99.90
25628;DHT22;40915;50.826;4.356;2024-02-14T23:11:56;12.50;99.90
25628;DHT22;40915;50.826;4.356;2024-02-14T23:14:22;12.50;99.90
25628;DHT22;40915;50.826;4.356;2024-02-14T23:16:47;12.50;99.90
25628;DHT22;40915;50.826;4.356;2024-02-14T23:19:13;12.60;99.90
25628;DHT22;40915;50.826;4.356;2024-02-14T23:21:38;12.50;99.90
25628;DHT22;40915;50.826;4.356;2024-02-14T23:24:04;12.50;99.90
25628;DHT22;40915;50.826;4.356;2024-02-14T23:26:30;12.50;99.90
25628;DHT22;40915;50.826;4.356;2024-02-14T23:28:55;12.60;99.90
25628;DHT22;40915;50.826;4.356;2024-02-14T23:31:21;12.50;99.90
25628;DHT22;40915;50.826;4.356;2024-02-14T23:33:48;12.50;99.90
25628;DHT22;40915;50.826;4.356;2024-02-14T23:36:15;12.60;99.90
25628;DHT22;40915;50.826;4.356;2024-02-14T23:38:41;12.50;99.90
25628;DHT22;40915;50.826;4.356;2024-02-14T23:41:07;12.50;99.90
25628;DHT22;40915;50.826;4.356;2024-02-14T23:43:33;12.50;99.90
25628;DHT22;40915;50.826;4.356;2024-02-14T23:45:59;12.50;99.90
25628;DHT22;40915;50.826;4.356;2024-02-14T23:48:24;12.50;99.90
25628;DHT22;40915;50.826;4.356;2024-02-14T23:50:50;12.50;99.90
25628;DHT22;40915;50.826;4.356;2024-02-14T23:53:16;12.60;99.90
25628;DHT22;40915;50.826;4.356;2024-02-14T23:55:43;12.50;99.90
25628;DHT22;40915;50.826;4.356;2024-02-14T23:58:08;12.50;99.90
